Time;durP1;ratioP1;P1;durP2;ratioP2;P2;SDS_P1;SDS_P2;PMS_P1;PMS_P2;Temp;Humidity;BMP_temperature;BMP_pressure;BME280_temperature;BME280_humidity;BME280_pressure;Samples;Min_cycle;Max_cycle;Signal;HPM_P1;HPM_P2
2023/10/31 00:01:04;;;;;;;23.67;17.42;;;;;;;11.35;71.88;97745.69;10283565;28;20113;-54
2023/10/31 00:06:03;;;;;;;29.77;18.42;;;;;;;11.33;72.07;97744.81;10284646;28;20132;-53
2023/10/31 00:11:02;;;;;;;20.10;15.70;;;;;;;11.33;72.35;97751.75;10291772;28;20025;-53
2023/10/31 00:16:01;;;;;;;21.52;17.30;;;;;;;11.42;71.75;97746.53;10290997;28;20045;-53
2023/10/31 00:21:00;;;;;;;19.05;15.60;;;;;;;11.41;72.52;97740.47;10292212;28;20061;-51
2023/10/31 00:25:59;;;;;;;22.17;16.60;;;;;;;11.39;72.50;97744.81;10290629;28;20390;-53
2023/10/31 00:31:00;;;;;;;19.92;15.48;;;;;;;11.23;72.61;97715.44;10290676;28;20389;-53
2023/10/31 00:35:59;;;;;;;19.40;15.93;;;;;;;11.39;74.01;97736.16;10274402;28;20129;-53
2023/10/31 00:40:58;;;;;;;20.85;15.18;;;;;;;11.39;73.62;97731.81;10290158;28;20082;-53
2023/10/31 00:45:57;;;;;;;21.95;15.40;;;;;;;11.44;73.30;97727.47;10289639;28;20037;-54
2023/10/31 00:50:56;;;;;;;22.52;14.95;;;;;;;11.33;73.56;97725.78;10290641;28;20428;-53
2023/10/31 00:55:55;;;;;;;20.30;15.23;;;;;;;11.32;74.41;97719.72;10289250;28;20152;-53
2023/10/31 01:00:54;;;;;;;18.30;13.98;;;;;;;11.24;74.77;97716.28;10289603;28;20117;-54
2023/10/31 01:05:53;;;;;;;21.08;13.77;;;;;;;11.34;74.55;97710.19;10248344;28;20116;-54
2023/10/31 01:10:52;;;;;;;18.67;14.55;;;;;;;11.37;73.78;97696.31;10249075;28;20146;-53
2023/10/31 01:15:51;;;;;;;23.73;15.05;;;;;;;11.22;73.44;97681.66;10248357;28;20038;-54
2023/10/31 01:20:50;;;;;;;24.02;15.52;;;;;;;11.25;74.40;97702.44;10248644;28;20026;-53
2023/10/31 01:25:49;;;;;;;18.20;14.70;;;;;;;11.22;74.01;97694.66;10247885;28;20057;-51
2023/10/31 01:30:48;;;;;;;20.10;15.57;;;;;;;11.13;74.23;97679.13;10288414;28;20095;-54
2023/10/31 01:35:47;;;;;;;20.02;13.35;;;;;;;11.17;74.40;97686.03;10273707;28;20054;-53
2023/10/31 01:40:50;;;;;;;20.05;13.55;;;;;;;11.08;75.36;97680.88;10287863;28;20061;-52
2023/10/31 01:45:50;;;;;;;32.58;14.48;;;;;;;10.90;76.52;97668.84;10286538;28;20070;-53
2023/10/31 01:50:49;;;;;;;;;;;;;;;10.87;76.43;97669.72;10288510;28;20064;-54
2023/10/31 01:55:48;;;;;;;21.42;14.50;;;;;;;10.67;76.99;97676.66;10318715;28;19920;-52
2023/10/31 02:00:47;;;;;;;18.02;13.45;;;;;;;10.52;76.90;97678.44;10287327;28;20061;-53
2023/10/31 02:05:46;;;;;;;18.77;13.93;;;;;;;10.43;76.79;97683.63;10286112;28;20403;-52
2023/10/31 02:10:45;;;;;;;;;;;;;;;10.29;77.67;97683.66;10286647;28;20050;-54
2023/10/31 02:15:45;;;;;;;16.17;12.65;;;;;;;10.32;77.61;97682.78;10285828;28;19917;-52
2023/10/31 02:20:44;;;;;;;15.88;12.05;;;;;;;10.03;79.73;97669.81;10286160;28;20105;-53
2023/10/31 02:25:43;;;;;;;18.58;11.95;;;;;;;10.24;79.74;97679.31;10285893;28;21216;-54
2023/10/31 02:30:42;;;;;;;17.40;12.45;;;;;;;10.37;79.16;97678.44;10285924;28;20049;-53
2023/10/31 02:35:41;;;;;;;18.45;13.10;;;;;;;10.31;79.63;97679.31;10273031;28;20050;-53
2023/10/31 02:40:40;;;;;;;17.70;12.95;;;;;;;10.26;79.55;97677.59;10245678;28;20155;-53
2023/10/31 02:45:38;;;;;;;18.23;12.68;;;;;;;10.14;80.19;97687.13;10245669;28;20539;-53
2023/10/31 02:50:37;;;;;;;17.00;13.50;;;;;;;10.10;79.64;97685.38;10245345;28;20038;-53
2023/10/31 02:55:36;;;;;;;16.85;13.77;;;;;;;10.12;79.47;97683.66;10244691;28;20030;-53
2023/10/31 03:00:35;;;;;;;16.10;14.02;;;;;;;10.10;79.32;97680.22;10244687;28;20559;-53
2023/10/31 03:05:34;;;;;;;21.05;13.13;;;;;;;10.13;78.78;97680.19;10244747;28;20807;-53
2023/10/31 03:10:33;;;;;;;19.88;14.75;;;;;;;9.99;80.53;97664.63;10244116;28;20419;-53
2023/10/31 03:15:32;;;;;;;19.10;14.30;;;;;;;10.01;80.44;97675.03;10244297;28;20113;-53
2023/10/31 03:20:31;;;;;;;19.40;14.43;;;;;;;10.10;80.54;97666.38;10284695;28;20030;-53
2023/10/31 03:25:30;;;;;;;23.00;14.15;;;;;;;10.20;81.34;97661.16;10283829;28;20113;-53
2023/10/31 03:30:29;;;;;;;20.55;14.45;;;;;;;10.30;81.47;97650.78;10284364;28;20124;-53
2023/10/31 03:35:28;;;;;;;;;;;;;;;10.46;80.77;97651.63;10274114;28;20073;-54
2023/10/31 03:40:27;;;;;;;17.88;12.90;;;;;;;10.46;80.42;97636.91;10242289;28;19921;-53
2023/10/31 03:45:26;;;;;;;21.15;14.60;;;;;;;10.46;80.07;97649.88;10243370;28;20532;-53
2023/10/31 03:50:25;;;;;;;20.80;14.63;;;;;;;10.19;81.02;97628.34;10242969;28;20548;-54
2023/10/31 03:55:24;;;;;;;22.90;14.43;;;;;;;10.31;80.29;97632.63;10243236;28;20621;-54
2023/10/31 04:00:23;;;;;;;21.02;13.48;;;;;;;10.35;80.78;97623.97;10242938;28;20810;-54
2023/10/31 04:05:22;;;;;;;19.45;13.80;;;;;;;10.25;81.37;97624.00;10243068;28;20491;-52
2023/10/31 04:10:21;;;;;;;18.45;13.15;;;;;;;10.11;80.10;97619.69;10242582;28;20329;-53
2023/10/31 04:15:20;;;;;;;17.80;11.65;;;;;;;9.93;79.43;97624.88;10242881;28;20034;-54
2023/10/31 04:20:20;;;;;;;17.70;11.95;;;;;;;9.83;78.42;97625.78;10242678;28;20127;-53
2023/10/31 04:25:19;;;;;;;17.67;13.23;;;;;;;9.61;79.21;97609.38;10283167;28;20569;-54
2023/10/31 04:30:18;;;;;;;20.13;13.77;;;;;;;9.61;79.27;97612.81;10282310;28;20037;-54
2023/10/31 04:35:17;;;;;;;16.23;12.00;;;;;;;9.20;79.51;97563.53;10274218;28;20035;-54
2023/10/31 04:40:16;;;;;;;16.42;12.75;;;;;;;9.40;79.80;97608.47;10282593;28;20519;-54
2023/10/31 04:45:15;;;;;;;20.33;13.45;;;;;;;9.48;80.32;97611.06;10282479;28;20045;-52
2023/10/31 04:50:14;;;;;;;18.58;13.45;;;;;;;9.59;80.39;97611.94;10282944;28;20085;-53
2023/10/31 04:55:13;;;;;;;19.38;13.38;;;;;;;9.68;80.60;97603.31;10288655;28;20057;-54
2023/10/31 05:00:12;;;;;;;20.23;15.40;;;;;;;9.72;81.07;97584.28;10289572;28;20038;-54
2023/10/31 05:05:11;;;;;;;;;;;;;;;9.77;81.00;97583.44;10290565;28;20076;-54
2023/10/31 05:10:10;;;;;;;20.00;13.15;;;;;;;9.47;82.81;97604.19;10288815;28;19917;-53
2023/10/31 05:15:09;;;;;;;18.35;12.88;;;;;;;9.73;80.91;97612.81;10289033;28;20022;-54
2023/10/31 05:20:09;;;;;;;18.95;12.50;;;;;;;9.85;80.74;97617.13;10287760;28;20530;-53
2023/10/31 05:25:08;;;;;;;17.27;12.65;;;;;;;9.90;80.20;97606.75;10288180;28;20116;-54
2023/10/31 05:30:07;;;;;;;24.05;13.35;;;;;;;9.73;80.22;97618.00;10281768;28;20568;-54
2023/10/31 05:35:06;;;;;;;;;;;;;;;9.92;79.85;97616.25;10256148;28;20057;-53
2023/10/31 05:40:05;;;;;;;19.38;13.40;;;;;;;10.01;79.65;97633.53;10286639;28;19933;-52
2023/10/31 05:45:05;;;;;;;20.63;13.00;;;;;;;10.07;79.85;97633.50;10287549;28;20072;-52
2023/10/31 05:50:05;;;;;;;19.58;13.90;;;;;;;10.10;79.51;97630.94;10272400;28;20078;-52
2023/10/31 05:55:05;;;;;;;23.38;14.40;;;;;;;10.28;79.40;97624.84;10250961;28;20074;-54
2023/10/31 06:00:05;;;;;;;24.77;16.08;;;;;;;10.45;79.15;97618.75;10246879;28;20122;-54
2023/10/31 06:05:04;;;;;;;20.10;13.75;;;;;;;10.64;78.86;97625.63;10243996;28;20121;-53
2023/10/31 06:10:03;;;;;;;21.83;14.38;;;;;;;10.88;78.14;97621.25;10265855;28;20120;-54
2023/10/31 06:15:03;;;;;;;;;;;;;;;11.14;77.65;97623.72;10248624;28;20045;-53
2023/10/31 06:20:02;;;;;;;15.93;10.47;;;;;;;11.29;76.82;97625.34;10248377;28;19956;-54
2023/10/31 06:25:02;;;;;;;25.92;13.52;;;;;;;11.48;75.34;97616.59;10265642;28;20065;-55
2023/10/31 06:30:01;;;;;;;27.05;15.88;;;;;;;11.76;74.51;97611.16;10262878;28;20065;-54
2023/10/31 06:35:00;;;;;;;19.95;12.40;;;;;;;11.72;73.85;97609.47;10252748;28;20112;-54
2023/10/31 06:39:58;;;;;;;15.65;10.68;;;;;;;11.91;72.94;97605.84;10246689;28;20066;-54
2023/10/31 06:44:57;;;;;;;20.17;11.50;;;;;;;12.14;72.57;97604.78;10244717;28;20042;-54
2023/10/31 06:49:56;;;;;;;17.92;11.50;;;;;;;12.29;73.42;97613.31;10246581;28;20130;-54
2023/10/31 06:54:55;;;;;;;22.52;12.20;;;;;;;12.54;72.73;97613.06;10287206;28;20124;-54
2023/10/31 06:59:55;;;;;;;20.63;12.18;;;;;;;12.94;71.39;97605.63;10249742;28;20040;-53
2023/10/31 07:04:54;;;;;;;18.15;10.50;;;;;;;13.13;71.57;97603.63;10246316;28;20764;-54
2023/10/31 07:09:53;;;;;;;13.25;8.80;;;;;;;13.41;72.89;97589.38;10286894;28;20840;-54
2023/10/31 07:14:52;;;;;;;13.60;8.60;;;;;;;13.94;72.10;97578.09;10269156;28;20347;-55
2023/10/31 07:19:51;;;;;;;15.57;8.35;;;;;;;14.30;70.46;97565.25;10286398;28;20132;-54
2023/10/31 07:24:51;;;;;;;9.02;6.03;;;;;;;14.66;65.86;97557.59;10277149;28;20065;-55
2023/10/31 07:29:50;;;;;;;9.70;5.05;;;;;;;15.19;60.19;97553.00;10268158;28;20062;-53
2023/10/31 07:34:49;;;;;;;10.30;6.10;;;;;;;15.91;56.40;97537.34;10253322;28;20120;-54
2023/10/31 07:39:48;;;;;;;;;;;;;;;16.49;53.93;97530.53;10286792;28;20058;-54
2023/10/31 07:44:47;;;;;;;11.25;6.60;;;;;;;17.04;50.40;97516.75;10249430;28;19968;-53
2023/10/31 07:49:46;;;;;;;;;;;;;;;17.50;49.73;97512.66;10283561;28;20056;-54
2023/10/31 07:54:45;;;;;;;12.18;6.38;;;;;;;17.89;48.27;97507.88;10246357;28;19914;-55
2023/10/31 07:59:44;;;;;;;7.97;6.13;;;;;;;18.26;47.48;97497.84;10260197;28;20145;-54
2023/10/31 08:04:43;;;;;;;7.82;5.97;;;;;;;18.55;46.00;97495.03;10276348;28;20129;-54
2023/10/31 08:09:42;;;;;;;8.25;6.00;;;;;;;18.76;44.94;97480.25;10246790;28;20177;-55
2023/10/31 08:14:41;;;;;;;7.88;6.30;;;;;;;19.03;43.48;97465.16;10244951;28;20125;-54
2023/10/31 08:19:40;;;;;;;9.18;6.75;;;;;;;19.22;42.38;97460.00;10246035;28;20129;-54
2023/10/31 08:24:39;;;;;;;9.77;6.47;;;;;;;19.54;42.10;97451.72;10245581;28;20065;-52
2023/10/31 08:29:38;;;;;;;8.57;6.20;;;;;;;19.79;40.52;97462.97;10251773;28;20113;-52
2023/10/31 08:34:37;;;;;;;7.60;6.22;;;;;;;20.05;39.72;97455.72;10256168;28;20065;-52
2023/10/31 08:39:36;;;;;;;10.38;7.05;;;;;;;20.19;38.99;97444.53;10253922;28;20042;-53
2023/10/31 08:44:37;;;;;;;7.32;6.57;;;;;;;20.31;38.85;97441.38;10252889;28;20015;-53
2023/10/31 08:49:36;;;;;;;13.13;6.88;;;;;;;20.44;38.26;97450.44;10292424;28;20062;-54
2023/10/31 08:54:35;;;;;;;12.63;6.65;;;;;;;20.71;37.68;97444.84;10270574;28;20030;-55
2023/10/31 08:59:34;;;;;;;8.95;5.85;;;;;;;20.92;36.74;97437.69;10252512;28;20144;-55
2023/10/31 09:04:33;;;;;;;7.22;6.50;;;;;;;21.07;36.88;97425.53;10251867;28;20018;-54
2023/10/31 09:09:32;;;;;;;10.45;6.30;;;;;;;21.34;36.00;97418.09;10252010;28;20063;-54
2023/10/31 09:14:31;;;;;;;7.90;6.50;;;;;;;21.46;35.44;97408.69;10250182;28;20109;-55
2023/10/31 09:19:29;;;;;;;7.80;6.00;;;;;;;21.51;35.28;97391.69;10255099;28;20026;-55
2023/10/31 09:24:28;;;;;;;7.05;6.35;;;;;;;21.74;34.38;97389.66;10250198;28;20109;-54
2023/10/31 09:29:27;;;;;;;17.30;6.40;;;;;;;21.73;33.86;97387.94;10266184;28;20042;-55
2023/10/31 09:34:26;;;;;;;11.13;6.28;;;;;;;21.85;33.84;97367.94;10253825;28;20666;-54
2023/10/31 09:39:25;;;;;;;7.38;6.75;;;;;;;21.98;33.78;97379.59;10260319;28;20502;-54
2023/10/31 09:44:24;;;;;;;13.25;7.10;;;;;;;22.07;33.66;97362.44;10261084;28;20050;-54
2023/10/31 09:49:24;;;;;;;9.93;7.05;;;;;;;22.06;32.97;97355.41;10269197;28;20026;-54
2023/10/31 09:54:25;;;;;;;6.47;5.85;;;;;;;22.16;32.22;97319.66;10249263;28;20106;-54
2023/10/31 09:59:24;;;;;;;7.15;6.10;;;;;;;22.10;32.48;97273.25;10246257;28;20053;-54
2023/10/31 10:04:23;;;;;;;7.90;6.80;;;;;;;22.82;32.33;97323.06;10245969;28;20046;-55
2023/10/31 10:09:22;;;;;;;9.07;6.40;;;;;;;23.13;31.58;97325.63;10245712;28;20141;-54
2023/10/31 10:14:26;;;;;;;7.38;6.63;;;;;;;23.28;30.63;97320.38;10286406;28;20034;-54
2023/10/31 10:19:25;;;;;;;8.93;6.80;;;;;;;23.44;29.99;97307.91;10247789;28;20085;-55
2023/10/31 10:24:25;;;;;;;7.38;6.40;;;;;;;23.56;29.70;97294.00;10243991;28;20483;-54
2023/10/31 10:29:25;;;;;;;7.55;6.93;;;;;;;23.66;29.25;97296.06;10253809;28;20085;-54
2023/10/31 10:34:25;;;;;;;8.25;6.38;;;;;;;23.85;28.74;97289.53;10273494;28;20161;-55
2023/10/31 10:39:24;;;;;;;6.90;6.35;;;;;;;23.96;28.89;97272.97;10246028;28;20137;-54
2023/10/31 10:44:35;;;;;;;9.40;6.22;;;;;;;24.16;27.99;97265.53;10245106;28;20117;-54
2023/10/31 10:49:36;;;;;;;11.38;6.43;;;;;;;24.49;27.04;97258.09;10284279;28;20137;-54
2023/10/31 10:54:44;;;;;;;7.05;6.38;;;;;;;24.59;26.90;97257.47;10285266;28;20709;-54
2023/10/31 10:59:50;;;;;;;7.38;6.53;;;;;;;24.90;26.29;97245.72;10284415;28;20448;-54
2023/10/31 11:04:50;;;;;;;6.80;6.28;;;;;;;25.14;26.01;97227.28;10285309;28;20125;-54
2023/10/31 11:09:49;;;;;;;7.50;6.80;;;;;;;25.43;25.51;97219.09;10282628;28;20348;-54
2023/10/31 11:14:48;;;;;;;6.72;6.07;;;;;;;25.55;24.42;97212.09;10262506;28;20459;-54
2023/10/31 11:19:48;;;;;;;7.15;6.43;;;;;;;25.70;24.25;97195.09;10244120;28;20080;-54
2023/10/31 11:24:49;;;;;;;10.30;6.57;;;;;;;25.95;24.20;97181.75;10243489;28;20141;-54
2023/10/31 11:29:48;;;;;;;8.38;6.45;;;;;;;25.97;24.12;97175.44;10244283;28;20117;-54
2023/10/31 11:34:47;;;;;;;7.55;6.18;;;;;;;26.24;23.53;97161.97;10250997;28;20070;-55
2023/10/31 11:40:20;;;;;;;7.22;6.53;;;;;;;26.39;23.86;97174.13;10284160;28;20057;-55
2023/10/31 11:45:42;;;;;;;7.00;6.25;;;;;;;26.61;24.03;97156.56;10283539;28;20129;-55
2023/10/31 11:50:41;;;;;;;8.38;6.63;;;;;;;26.63;23.61;97139.53;10282476;28;20632;-54
2023/10/31 11:55:42;;;;;;;7.53;6.82;;;;;;;26.65;24.04;97140.25;10298860;28;20440;-54
2023/10/31 12:00:41;;;;;;;6.43;5.85;;;;;;;26.62;24.14;97142.28;10283101;28;20073;-54
2023/10/31 12:05:40;;;;;;;7.50;6.82;;;;;;;26.57;24.57;97138.16;10265888;28;20588;-54
2023/10/31 12:10:39;;;;;;;7.50;6.90;;;;;;;26.42;23.83;97136.66;10251403;28;20554;-54
2023/10/31 12:15:38;;;;;;;9.23;6.95;;;;;;;26.36;24.48;97134.47;10251299;28;20058;-54
2023/10/31 12:20:47;;;;;;;7.18;6.47;;;;;;;26.44;24.65;97124.09;10291294;28;20161;-54
2023/10/31 12:25:53;;;;;;;6.97;6.28;;;;;;;26.55;24.18;97124.13;10290725;28;20136;-54
2023/10/31 12:30:54;;;;;;;7.45;6.75;;;;;;;26.34;23.98;97110.63;10291008;28;20522;-54
2023/10/31 12:35:58;;;;;;;9.05;7.40;;;;;;;26.31;24.33;97112.69;10275418;28;20542;-54
2023/10/31 12:40:58;;;;;;;10.15;6.53;;;;;;;26.02;24.17;97097.06;10290281;28;20072;-54
2023/10/31 12:45:57;;;;;;;7.30;6.60;;;;;;;25.90;24.18;97087.31;10289342;28;20555;-55
2023/10/31 12:51:10;;;;;;;6.75;5.90;;;;;;;25.88;24.09;97084.78;10290462;28;20389;-54
2023/10/31 12:56:09;;;;;;;7.00;6.30;;;;;;;25.76;24.54;97080.34;10263913;28;20073;-54
2023/10/31 13:01:12;;;;;;;8.65;7.85;;;;;;;25.78;24.58;97074.94;10250289;28;20124;-55
2023/10/31 13:06:17;;;;;;;7.45;6.53;;;;;;;25.76;24.32;97072.38;10288681;28;20528;-54
2023/10/31 13:11:17;;;;;;;7.63;6.88;;;;;;;25.71;24.43;97070.09;10289137;28;20156;-54
2023/10/31 13:16:16;;;;;;;6.88;6.28;;;;;;;25.76;24.16;97068.88;10254367;28;20058;-53
2023/10/31 13:21:17;;;;;;;7.38;6.72;;;;;;;25.60;24.45;97051.44;10265356;28;20065;-54
2023/10/31 13:26:16;;;;;;;8.02;6.45;;;;;;;25.44;24.14;97059.63;10292928;28;20140;-54
2023/10/31 13:31:24;;;;;;;7.57;5.90;;;;;;;25.21;24.38;97032.06;10291703;28;20077;-55
2023/10/31 13:36:24;;;;;;;13.30;6.57;;;;;;;25.18;23.66;97047.38;10255278;28;20154;-54
2023/10/31 13:41:23;;;;;;;7.30;6.00;;;;;;;24.96;24.20;97048.88;10287081;28;20156;-55
2023/10/31 13:46:23;;;;;;;12.57;6.88;;;;;;;24.84;24.02;97058.53;10290510;28;20121;-55
2023/10/31 13:51:22;;;;;;;7.68;6.22;;;;;;;24.58;25.02;97032.97;10284579;28;20073;-54
2023/10/31 13:56:21;;;;;;;9.05;6.25;;;;;;;24.52;25.56;97034.25;10289002;28;20050;-54
2023/10/31 14:01:24;;;;;;;6.75;6.13;;;;;;;24.31;26.15;97025.97;10287918;28;20240;-54
2023/10/31 14:06:29;;;;;;;8.90;5.85;;;;;;;24.15;26.36;97036.72;10275570;28;20153;-54
2023/10/31 14:11:28;;;;;;;8.77;6.63;;;;;;;24.19;26.58;97032.06;10270529;28;20129;-54
2023/10/31 14:16:27;;;;;;;6.53;5.97;;;;;;;24.01;27.36;97032.34;10284058;28;20077;-53
2023/10/31 14:21:26;;;;;;;11.02;6.47;;;;;;;23.91;27.20;97023.31;10289061;28;20148;-54
2023/10/31 14:26:26;;;;;;;8.40;6.28;;;;;;;23.77;27.63;97018.06;10277938;28;20046;-54
2023/10/31 14:31:26;;;;;;;8.32;6.00;;;;;;;23.79;27.88;97016.16;10288644;28;20571;-55
2023/10/31 14:36:24;;;;;;;10.13;6.60;;;;;;;23.67;28.57;97001.94;10281654;28;20093;-54
2023/10/31 14:41:24;;;;;;;8.25;6.70;;;;;;;23.43;28.79;97007.84;10289715;28;20152;-54
2023/10/31 14:46:23;;;;;;;9.20;7.85;;;;;;;23.30;29.05;97025.47;10282832;28;20547;-54
2023/10/31 14:51:22;;;;;;;7.68;7.07;;;;;;;23.29;29.34;97044.13;10265287;28;20053;-54
2023/10/31 14:56:22;;;;;;;10.55;7.80;;;;;;;23.00;29.68;97047.66;10285280;28;20107;-54
2023/10/31 15:01:21;;;;;;;11.25;8.10;;;;;;;22.74;30.35;97038.69;10285641;28;20156;-54
2023/10/31 15:06:23;;;;;;;8.25;7.40;;;;;;;22.71;30.85;97075.00;10284517;28;20050;-54
2023/10/31 15:11:22;;;;;;;10.35;7.70;;;;;;;22.64;30.44;97071.88;10284651;28;20116;-54
2023/10/31 15:16:21;;;;;;;8.15;7.20;;;;;;;22.53;31.08;97079.59;10284663;28;20456;-54
2023/10/31 15:21:20;;;;;;;8.80;7.93;;;;;;;22.26;31.94;97087.41;10243858;28;20042;-54
2023/10/31 15:26:24;;;;;;;9.43;6.95;;;;;;;22.12;32.55;97085.56;10243240;28;20050;-54
2023/10/31 15:31:23;;;;;;;8.98;7.20;;;;;;;21.98;32.48;97086.34;10243582;28;20069;-54
2023/10/31 15:36:22;;;;;;;10.20;6.57;;;;;;;21.90;33.19;97075.38;10263591;28;20046;-55
2023/10/31 15:41:23;;;;;;;8.38;6.75;;;;;;;21.86;33.37;97073.84;10243437;28;20040;-54
2023/10/31 15:46:22;;;;;;;8.63;7.72;;;;;;;21.65;34.08;97067.97;10243514;28;20760;-54
2023/10/31 15:51:21;;;;;;;10.40;7.07;;;;;;;21.53;34.49;97061.63;10242465;28;20081;-54
2023/10/31 15:56:20;;;;;;;13.55;7.75;;;;;;;21.39;34.78;97059.75;10243566;28;20034;-54
2023/10/31 16:01:19;;;;;;;10.13;7.22;;;;;;;21.42;34.76;97066.63;10244219;28;20129;-54
2023/10/31 16:06:18;;;;;;;9.32;7.72;;;;;;;21.25;35.17;97060.50;10242743;28;20054;-54
2023/10/31 16:11:17;;;;;;;14.55;7.90;;;;;;;21.25;35.07;97072.84;10243621;28;20078;-52
2023/10/31 16:16:16;;;;;;;9.77;7.72;;;;;;;21.18;35.16;97068.81;10245838;28;20038;-54
2023/10/31 16:21:20;;;;;;;9.57;8.35;;;;;;;21.19;35.43;97075.78;10244728;28;20739;-53
2023/10/31 16:26:19;;;;;;;9.63;7.75;;;;;;;21.24;35.35;97092.25;10282884;28;20049;-54
2023/10/31 16:31:19;;;;;;;10.05;7.80;;;;;;;21.22;35.29;97099.38;10285817;28;20113;-54
2023/10/31 16:36:18;;;;;;;11.50;9.57;;;;;;;21.25;35.18;97113.28;10266253;28;20062;-54
2023/10/31 16:41:18;;;;;;;12.05;8.05;;;;;;;21.21;34.73;97114.38;10245943;28;20069;-54
2023/10/31 16:46:17;;;;;;;9.57;8.10;;;;;;;21.19;35.07;97118.00;10285019;28;20587;-54
2023/10/31 16:51:17;;;;;;;9.95;8.20;;;;;;;21.10;35.21;97122.84;10289464;28;20136;-54
2023/10/31 16:56:17;;;;;;;11.13;8.10;;;;;;;21.06;35.45;97107.25;10290844;28;20060;-54
2023/10/31 17:01:16;;;;;;;11.07;8.52;;;;;;;20.79;35.62;97064.75;10290630;28;20092;-54
2023/10/31 17:06:15;;;;;;;9.05;8.30;;;;;;;20.86;36.13;97088.06;10289869;28;20097;-54
2023/10/31 17:11:14;;;;;;;12.02;7.80;;;;;;;20.73;36.15;97065.94;10249832;28;20070;-54
2023/10/31 17:16:13;;;;;;;11.23;7.95;;;;;;;20.74;36.42;97061.50;10247078;28;20130;-54
2023/10/31 17:21:12;;;;;;;13.88;8.50;;;;;;;20.67;36.73;97051.28;10248564;28;20026;-54
2023/10/31 17:26:11;;;;;;;14.40;8.50;;;;;;;20.64;36.63;97040.91;10248910;28;20031;-54
2023/10/31 17:31:11;;;;;;;8.80;7.68;;;;;;;20.70;36.63;97045.84;10248119;28;20536;-54
2023/10/31 17:36:10;;;;;;;14.73;8.05;;;;;;;20.75;36.39;97047.38;10266905;28;20076;-54
2023/10/31 17:41:09;;;;;;;11.20;7.75;;;;;;;20.77;36.13;97040.25;10248734;28;20065;-54
2023/10/31 17:46:08;;;;;;;8.23;7.35;;;;;;;20.86;35.96;97037.94;10248108;28;20290;-54
2023/10/31 17:51:07;;;;;;;11.00;8.30;;;;;;;20.88;35.59;97033.44;10246404;28;20046;-53
2023/10/31 17:56:07;;;;;;;10.23;7.50;;;;;;;20.88;35.17;97035.25;10247274;28;20482;-54
2023/10/31 18:01:06;;;;;;;8.38;6.93;;;;;;;20.83;34.90;97024.09;10246901;28;20112;-54
2023/10/31 18:06:05;;;;;;;10.90;7.35;;;;;;;20.92;34.73;97042.06;10246650;28;20133;-53
2023/10/31 18:11:05;;;;;;;9.52;7.80;;;;;;;20.92;34.55;97042.06;10246970;28;20514;-54
2023/10/31 18:16:05;;;;;;;9.45;7.50;;;;;;;20.86;34.33;97045.88;10247512;28;20546;-54
2023/10/31 18:21:04;;;;;;;9.07;7.80;;;;;;;20.86;34.22;97048.50;10246499;28;20073;-54
2023/10/31 18:26:03;;;;;;;8.80;7.40;;;;;;;20.96;33.82;97035.69;10245943;28;20126;-54
2023/10/31 18:31:03;;;;;;;9.18;7.22;;;;;;;20.98;33.51;97036.44;10246313;28;20054;-54
2023/10/31 18:36:03;;;;;;;9.88;8.15;;;;;;;21.07;33.25;97035.94;10270561;28;20074;-54
2023/10/31 18:41:03;;;;;;;10.48;8.25;;;;;;;21.09;33.42;97039.34;10247266;28;20077;-54
2023/10/31 18:46:02;;;;;;;9.73;7.80;;;;;;;21.10;33.30;97050.75;10245507;28;20589;-54
2023/10/31 18:51:01;;;;;;;9.93;8.07;;;;;;;21.09;33.55;97052.53;10244602;28;20068;-54
2023/10/31 18:56:00;;;;;;;9.07;7.63;;;;;;;21.06;33.75;97058.00;10245017;28;20038;-54
2023/10/31 19:00:59;;;;;;;8.18;7.38;;;;;;;20.99;34.15;97061.91;10246500;28;20052;-53
2023/10/31 19:05:58;;;;;;;8.45;7.05;;;;;;;20.83;34.38;97047.84;10245248;28;20105;-53
2023/10/31 19:10:57;;;;;;;9.52;7.35;;;;;;;20.86;34.31;97045.88;10244311;28;20057;-53
2023/10/31 19:15:56;;;;;;;9.32;7.40;;;;;;;20.83;34.32;97056.59;10284942;28;20518;-53
2023/10/31 19:20:55;;;;;;;7.57;6.82;;;;;;;20.76;34.51;97049.09;10285093;28;20408;-52
2023/10/31 19:25:54;;;;;;;7.90;6.95;;;;;;;20.75;34.58;97052.66;10283799;28;20136;-53
2023/10/31 19:30:53;;;;;;;8.60;7.43;;;;;;;20.74;34.27;97043.03;10283596;28;20129;-53
2023/10/31 19:35:51;;;;;;;8.13;7.28;;;;;;;20.72;34.36;97043.13;10268062;28;20038;-53
2023/10/31 19:40:50;;;;;;;9.82;7.20;;;;;;;20.68;34.30;97050.34;10243707;28;20504;-53
2023/10/31 19:45:49;;;;;;;9.27;7.43;;;;;;;20.76;34.30;97049.09;10243342;28;20547;-53
2023/10/31 19:50:48;;;;;;;7.68;6.93;;;;;;;20.81;34.24;97063.72;10243924;28;20733;-53
2023/10/31 19:55:47;;;;;;;9.30;6.78;;;;;;;20.72;34.27;97074.75;10243381;28;20129;-53
2023/10/31 20:00:46;;;;;;;7.47;6.25;;;;;;;20.81;34.10;97076.06;10243683;28;20081;-53
2023/10/31 20:05:47;;;;;;;11.95;6.97;;;;;;;20.81;34.03;97070.78;10242295;28;20050;-53
2023/10/31 20:10:46;;;;;;;7.35;6.65;;;;;;;20.81;33.87;97068.16;10244040;28;20460;-53
2023/10/31 20:15:49;;;;;;;8.07;6.13;;;;;;;20.79;33.92;97068.22;10244051;28;20136;-53
2023/10/31 20:20:48;;;;;;;10.98;7.03;;;;;;;20.79;34.03;97055.03;10283435;28;20126;-53
2023/10/31 20:25:48;;;;;;;12.35;6.95;;;;;;;20.85;33.95;97053.88;10288733;28;20117;-53
2023/10/31 20:30:47;;;;;;;7.93;7.07;;;;;;;20.78;34.19;97049.88;10291377;28;20128;-52
2023/10/31 20:35:46;;;;;;;7.82;7.10;;;;;;;20.78;34.34;97060.41;10276357;28;20116;-53
2023/10/31 20:40:45;;;;;;;9.70;7.43;;;;;;;20.73;34.70;97067.69;10251024;28;20506;-53
2023/10/31 20:45:44;;;;;;;9.32;7.47;;;;;;;20.65;35.00;97052.28;10250876;28;20152;-54
2023/10/31 20:50:43;;;;;;;9.68;6.68;;;;;;;20.66;35.00;97068.03;10248901;28;20389;-53
2023/10/31 20:55:42;;;;;;;10.80;8.10;;;;;;;20.63;35.30;97076.13;10250894;28;20078;-52
2023/10/31 21:00:41;;;;;;;11.20;7.85;;;;;;;20.54;35.48;97065.16;10250657;28;20097;-53
2023/10/31 21:05:40;;;;;;;8.68;7.38;;;;;;;20.49;35.64;97074.19;10248377;28;20046;-53
2023/10/31 21:10:39;;;;;;;7.70;7.00;;;;;;;20.57;35.66;97091.41;10250348;28;20136;-53
2023/10/31 21:15:38;;;;;;;8.68;6.90;;;;;;;20.43;35.96;97092.09;10250223;28;20118;-53
2023/10/31 21:20:37;;;;;;;7.13;6.43;;;;;;;20.48;35.91;97104.09;10250326;28;20042;-53
2023/10/31 21:25:38;;;;;;;13.90;7.03;;;;;;;20.25;35.66;97112.28;10249065;28;20154;-53
2023/10/31 21:30:37;;;;;;;11.30;7.15;;;;;;;20.22;35.68;97118.56;10289115;28;20074;-53
2023/10/31 21:35:36;;;;;;;6.90;6.25;;;;;;;20.33;35.51;97132.97;10273961;28;20045;-53
2023/10/31 21:40:35;;;;;;;16.52;9.15;;;;;;;20.34;35.66;97147.88;10249035;28;20440;-53
2023/10/31 21:45:35;;;;;;;16.17;10.07;;;;;;;20.28;35.76;97136.72;10248458;28;20595;-53
2023/10/31 21:50:34;;;;;;;10.85;8.77;;;;;;;20.11;35.83;97143.75;10247532;28;20125;-52
2023/10/31 21:55:33;;;;;;;7.90;7.10;;;;;;;19.97;35.78;97153.16;10248418;28;21872;-53
2023/10/31 22:00:32;;;;;;;10.68;7.13;;;;;;;19.67;36.09;97142.31;10248400;28;20527;-53
2023/10/31 22:05:32;;;;;;;9.73;7.50;;;;;;;19.53;36.84;97144.72;10284435;28;20073;-53
2023/10/31 22:10:31;;;;;;;11.15;7.13;;;;;;;19.38;37.05;97147.13;10287926;28;20073;-53
2023/10/31 22:15:30;;;;;;;8.80;7.25;;;;;;;19.33;37.23;97149.13;10286988;28;20324;-52
2023/10/31 22:20:29;;;;;;;11.18;8.02;;;;;;;19.15;37.67;97144.69;10287190;28;20033;-53
2023/10/31 22:25:28;;;;;;;9.88;7.72;;;;;;;19.06;38.11;97134.59;10285947;28;20117;-53
2023/10/31 22:30:26;;;;;;;12.80;7.93;;;;;;;18.94;38.22;97144.72;10287152;28;20065;-52
2023/10/31 22:35:26;;;;;;;11.90;8.35;;;;;;;18.79;38.77;97138.38;10273883;28;20041;-53
2023/10/31 22:40:25;;;;;;;13.75;8.98;;;;;;;18.65;39.03;97147.78;10244952;28;20073;-52
2023/10/31 22:45:24;;;;;;;14.70;8.90;;;;;;;18.57;39.43;97163.84;10244902;28;20038;-53
2023/10/31 22:50:24;;;;;;;10.80;8.82;;;;;;;18.43;39.90;97172.31;10245467;28;20142;-53
2023/10/31 22:55:27;;;;;;;15.77;10.05;;;;;;;18.33;40.08;97168.38;10245263;28;20085;-52
2023/10/31 23:00:27;;;;;;;15.70;9.77;;;;;;;18.32;40.26;97195.56;10244369;28;20129;-52
2023/10/31 23:05:27;;;;;;;11.90;8.10;;;;;;;17.89;41.01;97148.25;10285352;28;20124;-53